Time;durP1;ratioP1;P1;durP2;ratioP2;P2;SDS_P1;SDS_P2;PMS_P1;PMS_P2;Temp;Humidity;BMP_temperature;BMP_pressure;BME280_temperature;BME280_humidity;BME280_pressure;Samples;Min_cycle;Max_cycle;Signal;HPM_P1;HPM_P2
2021/03/15 00:02:12;;;;;;;5.60;1.65;;;3.20;85.60;;;;;;5035889;28;20029;-77
2021/03/15 00:04:38;;;;;;;4.55;2.00;;;3.20;85.50;;;;;;5035766;28;20020;-76
2021/03/15 00:07:04;;;;;;;4.10;1.73;;;3.20;85.40;;;;;;5035757;28;20432;-76
2021/03/15 00:09:29;;;;;;;5.50;1.58;;;3.30;85.30;;;;;;5035639;28;20055;-75
2021/03/15 00:11:55;;;;;;;2.92;1.95;;;3.30;85.20;;;;;;5053753;28;20388;-78
2021/03/15 00:14:21;;;;;;;5.22;2.08;;;3.30;85.30;;;;;;5035650;28;20060;-77
2021/03/15 00:16:47;;;;;;;3.03;1.67;;;3.40;85.30;;;;;;5035777;28;20533;-77
2021/03/15 00:19:14;;;;;;;5.35;2.00;;;3.30;85.20;;;;;;5035635;28;20049;-77
2021/03/15 00:21:40;;;;;;;5.00;1.85;;;3.40;85.20;;;;;;5035568;28;20028;-77
2021/03/15 00:24:06;;;;;;;5.07;2.35;;;3.40;84.90;;;;;;5035211;28;20389;-78
2021/03/15 00:26:32;;;;;;;4.30;2.00;;;3.40;85.00;;;;;;5035427;28;20021;-77
2021/03/15 00:28:58;;;;;;;4.82;1.85;;;3.50;85.20;;;;;;5035440;28;20063;-76
2021/03/15 00:31:24;;;;;;;5.25;2.25;;;3.30;85.30;;;;;;5035493;28;20385;-76
2021/03/15 00:33:49;;;;;;;5.82;2.38;;;3.30;85.90;;;;;;5035149;28;20064;-76
2021/03/15 00:36:15;;;;;;;3.35;1.90;;;3.40;86.10;;;;;;5035275;28;20401;-76
2021/03/15 00:38:40;;;;;;;4.90;2.00;;;3.40;85.70;;;;;;5035114;28;20378;-76
2021/03/15 00:41:06;;;;;;;9.52;2.90;;;3.40;85.40;;;;;;5035314;28;20028;-76
2021/03/15 00:43:32;;;;;;;4.55;2.05;;;3.40;85.60;;;;;;5035079;28;20129;-76
2021/03/15 00:45:57;;;;;;;5.03;2.70;;;3.40;85.50;;;;;;5035240;28;20025;-77
2021/03/15 00:48:23;;;;;;;6.15;2.72;;;3.50;85.80;;;;;;5035074;28;20021;-78
2021/03/15 00:50:48;;;;;;;5.25;2.58;;;3.40;85.80;;;;;;5034862;28;20067;-76
2021/03/15 00:53:14;;;;;;;4.78;2.40;;;3.40;87.00;;;;;;5034922;28;20020;-76
2021/03/15 00:55:40;;;;;;;6.72;2.22;;;3.30;86.10;;;;;;5035024;28;20485;-76
2021/03/15 00:58:06;;;;;;;6.10;2.58;;;3.30;86.10;;;;;;5034683;28;20060;-78
2021/03/15 01:00:34;;;;;;;7.93;2.53;;;3.20;86.30;;;;;;5034817;28;20021;-77
2021/03/15 01:03:00;;;;;;;6.18;2.78;;;3.30;86.50;;;;;;5034770;28;20124;-77
2021/03/15 01:05:28;;;;;;;4.97;2.47;;;3.30;86.50;;;;;;5034990;28;20052;-77
2021/03/15 01:07:54;;;;;;;7.18;2.25;;;3.20;86.10;;;;;;5052906;28;20033;-77
2021/03/15 01:10:24;;;;;;;5.38;2.25;;;3.20;86.20;;;;;;5035699;28;20094;-76
2021/03/15 01:12:50;;;;;;;9.88;2.85;;;3.20;85.70;;;;;;5034755;28;20025;-77
2021/03/15 01:15:19;;;;;;;7.53;2.75;;;3.10;85.70;;;;;;5035246;28;20104;-77
2021/03/15 01:17:45;;;;;;;9.18;2.72;;;3.20;85.50;;;;;;5034966;28;20040;-76
2021/03/15 01:20:11;;;;;;;10.50;2.60;;;3.10;85.40;;;;;;5034719;28;20021;-75
2021/03/15 01:22:36;;;;;;;9.23;2.67;;;3.20;85.40;;;;;;5052730;28;20025;-76
2021/03/15 01:25:04;;;;;;;8.77;2.63;;;3.20;85.60;;;;;;5035212;28;20100;-78
2021/03/15 01:27:30;;;;;;;7.38;2.72;;;3.20;85.30;;;;;;5034302;28;20021;-77
2021/03/15 01:29:55;;;;;;;8.75;2.22;;;3.20;84.90;;;;;;5034882;28;20029;-76
2021/03/15 01:32:21;;;;;;;8.90;2.95;;;3.20;85.10;;;;;;5035453;28;20063;-77
2021/03/15 01:34:47;;;;;;;7.20;2.30;;;3.20;85.10;;;;;;5037176;28;20049;-76
2021/03/15 01:37:12;;;;;;;7.90;2.47;;;3.30;85.00;;;;;;5047096;28;20478;-77
2021/03/15 01:39:38;;;;;;;8.68;2.58;;;3.30;84.70;;;;;;5053257;28;20052;-75
2021/03/15 01:42:04;;;;;;;6.68;2.35;;;3.30;84.70;;;;;;5053726;28;20044;-75
2021/03/15 01:44:30;;;;;;;7.15;2.47;;;3.30;84.80;;;;;;5040283;28;20508;-76
2021/03/15 01:46:55;;;;;;;9.27;2.78;;;3.30;85.00;;;;;;5057784;28;20029;-76
2021/03/15 01:49:21;;;;;;;8.20;2.00;;;3.30;85.10;;;;;;5040316;28;20021;-75
2021/03/15 01:51:48;;;;;;;6.85;1.88;;;3.20;84.90;;;;;;5038485;28;20083;-76
2021/03/15 01:54:18;;;;;;;8.70;2.13;;;3.20;85.10;;;;;;5039719;28;20482;-76
2021/03/15 01:56:45;;;;;;;12.30;2.60;;;3.10;85.20;;;;;;5038717;28;20022;-75
2021/03/15 01:59:13;;;;;;;7.20;2.70;;;3.20;85.10;;;;;;5038563;28;20115;-76
2021/03/15 02:01:39;;;;;;;11.30;3.10;;;3.20;84.90;;;;;;5057237;28;20052;-76
2021/03/15 02:04:05;;;;;;;7.32;2.80;;;3.10;84.60;;;;;;5037549;28;20021;-75
2021/03/15 02:06:30;;;;;;;7.25;2.45;;;3.10;84.70;;;;;;5038263;28;20385;-76
2021/03/15 02:08:56;;;;;;;8.95;1.85;;;3.20;85.40;;;;;;5055928;28;20040;-76
2021/03/15 02:11:32;;;;;;;7.50;2.17;;;3.20;83.80;;;;;;5037543;28;20017;-75
2021/03/15 02:14:01;;;;;;;11.32;2.03;;;3.10;83.40;;;;;;5037789;28;20025;-77
2021/03/15 02:16:58;;;;;;;6.72;1.95;;;3.20;83.60;;;;;;5037912;28;20025;-77
2021/03/15 02:19:42;;;;;;;8.95;2.40;;;3.30;83.40;;;;;;5037072;28;20501;-78
2021/03/15 02:22:28;;;;;;;8.57;1.98;;;3.20;83.20;;;;;;5057647;28;20033;-77
2021/03/15 02:25:05;;;;;;;11.55;2.10;;;3.30;83.50;;;;;;5055218;28;20074;-76
2021/03/15 02:28:08;;;;;;;7.25;2.40;;;3.30;83.70;;;;;;5055447;28;20032;-77
2021/03/15 02:31:09;;;;;;;5.40;1.92;;;3.30;83.90;;;;;;5037536;28;20056;-76
2021/03/15 02:34:13;;;;;;;9.52;2.33;;;3.30;83.70;;;;;;5055122;28;20028;-74
2021/03/15 02:36:41;;;;;;;9.00;1.85;;;3.40;83.00;;;;;;4993302;28;20089;-77
2021/03/15 02:39:11;;;;;;;5.78;1.83;;;3.40;83.10;;;;;;4960955;28;20158;-79
2021/03/15 02:41:42;;;;;;;11.18;2.83;;;3.40;83.10;;;;;;5004323;28;20459;-78
2021/03/15 02:44:09;;;;;;;13.27;2.35;;;3.40;81.60;;;;;;5033803;28;20029;-78
2021/03/15 02:46:36;;;;;;;8.57;2.15;;;3.30;82.30;;;;;;5034830;28;20112;-78
2021/03/15 02:49:09;;;;;;;12.80;2.10;;;3.40;81.60;;;;;;5033809;28;20125;-78
2021/03/15 02:51:37;;;;;;;6.38;1.70;;;3.40;81.60;;;;;;5033622;28;20449;-78
2021/03/15 02:54:04;;;;;;;4.80;1.60;;;3.20;82.10;;;;;;5034899;28;20471;-78
2021/03/15 02:56:32;;;;;;;4.93;1.75;;;3.10;83.00;;;;;;5034844;28;20034;-78
2021/03/15 02:59:03;;;;;;;4.45;1.77;;;3.00;84.00;;;;;;5034413;28;20371;-78
2021/03/15 03:01:31;;;;;;;4.25;1.80;;;2.90;84.70;;;;;;5034698;28;20438;-77
2021/03/15 03:03:57;;;;;;;4.65;1.42;;;2.90;84.70;;;;;;5033194;28;20040;-78
2021/03/15 03:06:28;;;;;;;5.72;2.10;;;2.90;84.80;;;;;;5033645;28;20091;-78
2021/03/15 03:08:55;;;;;;;4.85;1.70;;;2.90;84.90;;;;;;5033284;28;20068;-76
2021/03/15 03:11:23;;;;;;;5.88;1.80;;;3.00;84.80;;;;;;5034714;28;20105;-77
2021/03/15 03:13:51;;;;;;;2.67;1.35;;;3.00;84.30;;;;;;5033611;28;20032;-76
2021/03/15 03:16:19;;;;;;;5.15;1.48;;;3.00;83.70;;;;;;5034653;28;20474;-78
2021/03/15 03:18:48;;;;;;;3.92;1.48;;;3.10;83.20;;;;;;5033282;28;20037;-78
2021/03/15 03:21:16;;;;;;;5.57;1.50;;;3.20;83.20;;;;;;5033363;28;20068;-78
2021/03/15 03:23:43;;;;;;;4.75;1.80;;;3.20;82.70;;;;;;5032864;28;20387;-78
2021/03/15 03:26:09;;;;;;;3.28;1.40;;;3.20;82.20;;;;;;5033187;28;20026;-78
2021/03/15 03:28:36;;;;;;;5.85;1.60;;;3.20;82.00;;;;;;5032662;28;20025;-79
2021/03/15 03:31:05;;;;;;;8.45;1.40;;;3.20;81.80;;;;;;5034436;28;20026;-77
2021/03/15 03:33:31;;;;;;;5.72;1.70;;;3.30;81.40;;;;;;5032935;28;20022;-77
2021/03/15 03:35:57;;;;;;;4.35;1.35;;;3.30;81.00;;;;;;5035859;28;20107;-77
2021/03/15 03:38:22;;;;;;;4.15;1.33;;;3.30;80.70;;;;;;5036275;28;20083;-76
2021/03/15 03:40:48;;;;;;;5.55;1.95;;;3.30;80.40;;;;;;5036343;28;20013;-77
2021/03/15 03:43:14;;;;;;;2.53;1.35;;;3.30;80.10;;;;;;5036325;28;20503;-77
2021/03/15 03:45:40;;;;;;;4.70;1.30;;;3.40;80.10;;;;;;5035624;28;20641;-76
2021/03/15 03:48:07;;;;;;;2.78;1.15;;;3.30;80.50;;;;;;5035872;28;20021;-76
2021/03/15 03:50:34;;;;;;;3.90;1.42;;;3.40;80.90;;;;;;5053856;28;20390;-77
2021/03/15 03:53:34;;;;;;;4.53;1.33;;;3.30;80.10;;;;;;5036047;28;20397;-77
2021/03/15 03:56:10;;;;;;;6.65;1.42;;;3.30;80.60;;;;;;5026851;28;20033;-77
2021/03/15 03:58:41;;;;;;;2.47;1.25;;;3.30;80.50;;;;;;5035207;28;20485;-77
2021/03/15 04:01:08;;;;;;;4.10;1.10;;;3.30;80.40;;;;;;5035941;28;20061;-78
2021/03/15 04:03:36;;;;;;;2.78;1.25;;;3.30;80.60;;;;;;5035814;28;20124;-77
2021/03/15 04:06:06;;;;;;;5.18;1.75;;;3.30;80.50;;;;;;5053489;28;20021;-77
2021/03/15 04:08:44;;;;;;;5.65;1.60;;;3.30;80.90;;;;;;5053506;28;20032;-77
2021/03/15 04:11:11;;;;;;;3.92;1.10;;;3.30;80.70;;;;;;5045641;28;20470;-78
2021/03/15 04:13:38;;;;;;;2.83;1.58;;;3.30;80.70;;;;;;5054687;28;20013;-77
2021/03/15 04:16:07;;;;;;;3.65;1.60;;;3.20;80.90;;;;;;5054924;28;20071;-78
2021/03/15 04:18:36;;;;;;;6.25;1.40;;;3.20;80.90;;;;;;5037914;28;20040;-77
2021/03/15 04:21:03;;;;;;;7.70;2.00;;;3.20;80.70;;;;;;5035540;28;20083;-77
2021/03/15 04:23:38;;;;;;;8.43;1.60;;;3.20;80.70;;;;;;5035505;28;20124;-77
2021/03/15 04:26:05;;;;;;;5.07;1.55;;;3.20;81.30;;;;;;5035775;28;20056;-77
2021/03/15 04:28:33;;;;;;;5.68;1.50;;;3.20;81.40;;;;;;5035239;28;20059;-77
2021/03/15 04:31:00;;;;;;;7.70;1.83;;;3.20;81.60;;;;;;5035369;28;20104;-76
2021/03/15 04:33:26;;;;;;;5.75;1.50;;;3.20;81.80;;;;;;5035490;28;20029;-77
2021/03/15 04:35:53;;;;;;;4.07;1.77;;;3.30;81.70;;;;;;5035710;28;20049;-77
2021/03/15 04:38:21;;;;;;;5.30;1.50;;;3.30;81.30;;;;;;5035688;28;20056;-78
2021/03/15 04:40:48;;;;;;;4.00;1.63;;;3.30;81.10;;;;;;5035605;28;20017;-76
2021/03/15 04:43:15;;;;;;;4.35;1.50;;;3.20;81.20;;;;;;5035685;28;20035;-76
2021/03/15 04:45:45;;;;;;;3.88;1.15;;;3.20;81.40;;;;;;5035546;28;20390;-76
2021/03/15 04:48:31;;;;;;;4.63;1.50;;;3.20;81.50;;;;;;5035424;28;20119;-76
2021/03/15 04:51:03;;;;;;;4.07;1.52;;;3.20;81.30;;;;;;5035064;28;20027;-76
2021/03/15 04:53:30;;;;;;;7.05;1.60;;;3.20;81.70;;;;;;5035277;28;20091;-77
2021/03/15 04:55:59;;;;;;;3.90;1.38;;;3.20;81.80;;;;;;5035400;28;20032;-76
2021/03/15 04:58:26;;;;;;;3.35;1.40;;;3.20;81.90;;;;;;5052891;28;20527;-76
2021/03/15 05:00:56;;;;;;;2.08;1.35;;;3.20;81.40;;;;;;5034620;28;20025;-77
2021/03/15 05:03:23;;;;;;;5.22;1.65;;;3.20;81.90;;;;;;5035040;28;20021;-76
2021/03/15 05:05:52;;;;;;;5.88;1.55;;;3.20;82.50;;;;;;5034816;28;20115;-77
2021/03/15 05:08:19;;;;;;;4.93;1.95;;;3.10;82.50;;;;;;5052864;28;20021;-76
2021/03/15 05:10:46;;;;;;;3.97;1.40;;;3.20;82.70;;;;;;5034810;28;20043;-78
2021/03/15 05:13:13;;;;;;;4.70;1.35;;;3.20;82.70;;;;;;5035109;28;20036;-78
2021/03/15 05:15:39;;;;;;;7.53;1.30;;;3.20;82.50;;;;;;5052723;28;20108;-76
2021/03/15 05:18:10;;;;;;;4.80;1.40;;;3.10;83.10;;;;;;5034744;28;20047;-77
2021/03/15 05:20:37;;;;;;;2.15;1.20;;;3.10;83.20;;;;;;5035187;28;20067;-76
2021/03/15 05:23:06;;;;;;;2.80;1.40;;;3.10;83.80;;;;;;5034712;28;20390;-77
2021/03/15 05:25:33;;;;;;;5.13;1.52;;;3.10;83.80;;;;;;5034904;28;20071;-78
2021/03/15 05:28:00;;;;;;;2.85;1.25;;;3.10;83.50;;;;;;5035067;28;20033;-78
2021/03/15 05:30:27;;;;;;;3.53;1.30;;;3.00;83.60;;;;;;5052697;28;20462;-78
2021/03/15 05:32:54;;;;;;;2.72;1.30;;;3.00;84.10;;;;;;5035113;28;20021;-77
2021/03/15 05:35:21;;;;;;;1.88;1.27;;;3.00;84.50;;;;;;5034841;28;20126;-77
2021/03/15 05:37:47;;;;;;;2.05;1.25;;;3.10;84.40;;;;;;5034435;28;20025;-77
2021/03/15 05:40:19;;;;;;;1.92;1.33;;;3.00;84.50;;;;;;5034761;28;20115;-77
2021/03/15 05:42:58;;;;;;;2.75;1.20;;;3.00;84.30;;;;;;5034699;28;20021;-77
2021/03/15 05:45:42;;;;;;;3.55;1.05;;;3.10;84.70;;;;;;5034797;28;20549;-77
2021/03/15 05:48:16;;;;;;;2.95;1.50;;;3.10;84.40;;;;;;5034900;28;20033;-77
2021/03/15 05:51:04;;;;;;;3.63;1.30;;;3.10;83.90;;;;;;5034668;28;20099;-77
2021/03/15 05:54:07;;;;;;;4.13;0.93;;;3.10;83.90;;;;;;5034904;28;20025;-76
2021/03/15 05:56:53;;;;;;;1.95;0.60;;;3.20;83.40;;;;;;5034647;28;20025;-75
2021/03/15 05:59:46;;;;;;;0.70;0.60;;;3.20;82.90;;;;;;5052535;28;20029;-75
2021/03/15 06:02:34;;;;;;;1.35;0.80;;;3.30;82.80;;;;;;5034277;28;20052;-75
2021/03/15 06:05:12;;;;;;;2.45;0.90;;;3.30;82.70;;;;;;5052500;28;20087;-76
2021/03/15 06:07:42;;;;;;;2.58;0.57;;;3.30;82.80;;;;;;5034589;28;20068;-75
2021/03/15 06:10:09;;;;;;;1.23;0.43;;;3.30;82.10;;;;;;5034578;28;20206;-76
2021/03/15 06:12:47;;;;;;;1.85;0.90;;;3.30;81.40;;;;;;5034352;28;20028;-76
2021/03/15 06:15:15;;;;;;;0.47;0.47;;;3.30;81.20;;;;;;5052421;28;20073;-77
2021/03/15 06:17:41;;;;;;;1.13;0.70;;;3.30;80.60;;;;;;5033967;28;20033;-77
2021/03/15 06:20:07;;;;;;;0.85;0.68;;;3.40;80.40;;;;;;5052083;28;20052;-77
2021/03/15 06:22:34;;;;;;;1.10;1.00;;;3.40;80.00;;;;;;5035311;28;20028;-77
2021/03/15 06:25:04;;;;;;;1.73;0.60;;;3.40;79.90;;;;;;5037681;28;20021;-75
2021/03/15 06:27:30;;;;;;;0.70;0.32;;;3.50;79.50;;;;;;5055499;28;20021;-76
2021/03/15 06:29:56;;;;;;;0.25;0.25;;;3.50;79.30;;;;;;5037544;28;20032;-76
2021/03/15 06:32:28;;;;;;;0.22;0.22;;;3.50;79.20;;;;;;5037420;28;20048;-76
2021/03/15 06:34:57;;;;;;;0.45;0.38;;;3.50;80.00;;;;;;5037764;28;20044;-77
2021/03/15 06:37:23;;;;;;;0.32;0.32;;;3.40;80.20;;;;;;5037129;28;20025;-77
2021/03/15 06:39:50;;;;;;;0.95;0.57;;;3.40;80.90;;;;;;5037180;28;20127;-77
2021/03/15 06:42:17;;;;;;;1.10;0.28;;;3.40;81.40;;;;;;5037562;28;20044;-77
2021/03/15 06:44:43;;;;;;;0.55;0.38;;;3.50;81.40;;;;;;5037367;28;20101;-76
2021/03/15 06:47:09;;;;;;;0.60;0.40;;;3.40;81.20;;;;;;5037644;28;20415;-77
2021/03/15 06:49:35;;;;;;;0.70;0.40;;;3.40;81.10;;;;;;5036980;28;20481;-77
2021/03/15 06:52:10;;;;;;;1.38;0.52;;;3.40;81.30;;;;;;5037116;28;20059;-77
2021/03/15 06:54:36;;;;;;;1.10;0.40;;;3.40;81.00;;;;;;5037582;28;20032;-77
2021/03/15 06:57:20;;;;;;;0.70;0.50;;;3.50;80.80;;;;;;5037170;28;20025;-77
2021/03/15 06:59:54;;;;;;;0.35;0.35;;;3.50;80.30;;;;;;5037177;28;20044;-79
2021/03/15 07:02:24;;;;;;;0.40;0.35;;;3.60;79.90;;;;;;5037076;28;20064;-78
2021/03/15 07:04:52;;;;;;;0.47;0.30;;;3.60;80.10;;;;;;5037158;28;20078;-78
2021/03/15 07:07:26;;;;;;;0.52;0.32;;;3.60;80.90;;;;;;5036835;28;20055;-79
2021/03/15 07:09:52;;;;;;;0.65;0.50;;;3.60;81.10;;;;;;5036835;28;20023;-78
2021/03/15 07:12:23;;;;;;;1.85;0.88;;;3.60;81.10;;;;;;5037104;28;20025;-78
2021/03/15 07:14:49;;;;;;;0.20;0.20;;;3.70;81.60;;;;;;5054699;28;20017;-78
2021/03/15 07:17:24;;;;;;;0.65;0.30;;;3.60;80.70;;;;;;5036908;28;20025;-77
2021/03/15 07:19:50;;;;;;;0.70;0.45;;;3.60;80.90;;;;;;5054750;28;20025;-77
2021/03/15 07:22:27;;;;;;;0.35;0.20;;;3.60;80.60;;;;;;5054816;28;20036;-77
2021/03/15 07:25:08;;;;;;;0.75;0.40;;;3.60;79.90;;;;;;5054978;28;20469;-78
2021/03/15 07:27:35;;;;;;;0.60;0.35;;;3.70;80.50;;;;;;5064897;28;20021;-78
2021/03/15 07:30:26;;;;;;;1.25;0.45;;;3.70;79.80;;;;;;5045035;28;20051;-77
2021/03/15 07:32:52;;;;;;;0.30;0.30;;;3.70;79.60;;;;;;5072449;28;20021;-77
2021/03/15 07:35:25;;;;;;;1.13;0.70;;;3.80;79.50;;;;;;5072951;28;20053;-76
2021/03/15 07:37:51;;;;;;;0.73;0.35;;;3.90;79.60;;;;;;5062266;28;20037;-76
2021/03/15 07:40:42;;;;;;;0.65;0.40;;;3.90;79.20;;;;;;5056849;28;20025;-76
2021/03/15 07:43:14;;;;;;;1.42;0.45;;;3.90;79.90;;;;;;5055400;28;20469;-78
2021/03/15 07:45:46;;;;;;;2.05;0.28;;;4.00;79.10;;;;;;5030049;28;20374;-78
2021/03/15 07:48:12;;;;;;;0.30;0.30;;;4.10;78.70;;;;;;5020252;28;20029;-75
2021/03/15 07:50:39;;;;;;;0.43;0.28;;;4.10;79.10;;;;;;5054170;28;20024;-78
2021/03/15 07:53:05;;;;;;;0.40;0.40;;;4.20;78.70;;;;;;5036420;28;20035;-79
2021/03/15 07:55:36;;;;;;;0.82;0.38;;;4.30;78.70;;;;;;5036055;28;20079;-78
2021/03/15 07:58:25;;;;;;;1.27;0.35;;;4.30;78.90;;;;;;5035824;28;20032;-77
2021/03/15 08:00:52;;;;;;;0.68;0.28;;;4.40;78.10;;;;;;5036108;28;20021;-79
2021/03/15 08:03:18;;;;;;;2.03;0.45;;;4.30;78.40;;;;;;5053759;28;20067;-78
2021/03/15 08:05:44;;;;;;;0.77;0.50;;;4.20;78.30;;;;;;5052752;28;20037;-78
2021/03/15 08:08:10;;;;;;;0.70;0.50;;;4.10;79.60;;;;;;5036121;28;20044;-77
2021/03/15 08:10:35;;;;;;;1.63;0.43;;;4.30;79.60;;;;;;5053768;28;20454;-77
2021/03/15 08:13:02;;;;;;;0.20;0.20;;;4.30;79.40;;;;;;5036190;28;20024;-80
2021/03/15 08:15:29;;;;;;;0.40;0.30;;;4.10;79.50;;;;;;5035674;28;20013;-78
2021/03/15 08:17:56;;;;;;;0.82;0.43;;;3.80;80.30;;;;;;5035732;28;20035;-80
2021/03/15 08:20:24;;;;;;;0.30;0.25;;;3.70;81.90;;;;;;5035631;28;20033;-80
2021/03/15 08:22:54;;;;;;;0.40;0.40;;;3.60;82.90;;;;;;5035356;28;20024;-78
2021/03/15 08:25:21;;;;;;;2.00;0.55;;;3.50;84.00;;;;;;5053547;28;20031;-79
2021/03/15 08:27:48;;;;;;;1.25;0.50;;;3.60;84.40;;;;;;5035398;28;20567;-80
2021/03/15 08:30:19;;;;;;;1.85;0.85;;;3.60;83.40;;;;;;5053462;28;20112;-81
2021/03/15 08:32:45;;;;;;;2.97;1.13;;;3.70;82.70;;;;;;5053480;28;20029;-80
2021/03/15 08:35:15;;;;;;;1.52;0.50;;;3.70;82.90;;;;;;5053366;28;20059;-79
2021/03/15 08:37:59;;;;;;;0.60;0.43;;;3.80;82.10;;;;;;5035272;28;20029;-79
2021/03/15 08:40:40;;;;;;;1.15;0.60;;;3.90;82.00;;;;;;5053143;28;20029;-83
2021/03/15 08:43:23;;;;;;;1.05;0.73;;;4.00;81.40;;;;;;5053197;28;20112;-83
2021/03/15 08:45:49;;;;;;;0.98;0.50;;;4.10;81.40;;;;;;5035272;28;20373;-85
2021/03/15 08:48:16;;;;;;;1.50;0.30;;;4.10;81.70;;;;;;5035474;28;20065;-80
2021/03/15 08:50:57;;;;;;;1.23;0.88;;;4.30;80.50;;;;;;5053106;28;20024;-78
2021/03/15 08:53:41;;;;;;;1.15;0.47;;;4.40;80.90;;;;;;5035535;28;20495;-80
2021/03/15 08:56:19;;;;;;;0.80;0.20;;;4.50;79.40;;;;;;5053136;28;20025;-81
2021/03/15 08:58:45;;;;;;;0.40;0.20;;;4.60;78.50;;;;;;5052858;28;20033;-82
2021/03/15 09:01:16;;;;;;;1.30;0.30;;;4.80;78.30;;;;;;5052841;28;20021;-81
2021/03/15 09:03:47;;;;;;;0.98;0.50;;;4.70;78.80;;;;;;5053009;28;20029;-81
2021/03/15 09:06:14;;;;;;;0.63;0.45;;;4.90;79.10;;;;;;5052902;28;20103;-81
2021/03/15 09:09:11;;;;;;;1.48;0.30;;;4.70;78.00;;;;;;5052959;28;20033;-80
2021/03/15 09:11:37;;;;;;;1.65;0.60;;;4.70;79.40;;;;;;5052771;28;20013;-81
2021/03/15 09:14:15;;;;;;;0.77;0.40;;;4.60;79.10;;;;;;5052913;28;20028;-81
2021/03/15 09:16:42;;;;;;;1.73;0.60;;;4.70;79.40;;;;;;5034876;28;20025;-81
2021/03/15 09:19:23;;;;;;;0.68;0.43;;;4.80;79.30;;;;;;5052397;28;20032;-81
2021/03/15 09:21:59;;;;;;;1.05;0.50;;;4.80;79.00;;;;;;5052633;28;20465;-75
2021/03/15 09:24:45;;;;;;;1.70;0.38;;;4.80;79.20;;;;;;5052522;28;20096;-79
2021/03/15 09:27:20;;;;;;;1.75;0.50;;;4.80;78.90;;;;;;5052673;28;20025;-79
2021/03/15 09:29:54;;;;;;;0.67;0.33;;;4.80;78.80;;;;;;5034754;28;20108;-80
2021/03/15 09:32:27;;;;;;;1.75;0.30;;;4.70;79.90;;;;;;5052596;28;20343;-78
2021/03/15 09:34:53;;;;;;;0.85;0.60;;;4.70;81.30;;;;;;5052352;28;20485;-81
2021/03/15 09:37:19;;;;;;;1.45;0.47;;;4.60;81.30;;;;;;5052482;28;20033;-78
2021/03/15 09:39:46;;;;;;;1.23;0.35;;;4.30;82.10;;;;;;5034678;28;20044;-81
2021/03/15 09:42:11;;;;;;;1.27;0.38;;;4.30;83.20;;;;;;5052475;28;20382;-81
2021/03/15 09:44:42;;;;;;;0.82;0.30;;;4.30;83.00;;;;;;5052295;28;20033;-80
2021/03/15 09:47:07;;;;;;;0.85;0.50;;;4.20;82.70;;;;;;5052604;28;20032;-82
2021/03/15 09:49:41;;;;;;;0.93;0.40;;;4.30;82.80;;;;;;5052301;28;20025;-82
2021/03/15 09:52:17;;;;;;;0.98;0.60;;;4.30;83.80;;;;;;5052433;28;20029;-81
2021/03/15 09:54:45;;;;;;;2.95;0.60;;;4.30;83.10;;;;;;5034505;28;20053;-79
2021/03/15 09:57:13;;;;;;;1.13;0.90;;;4.40;82.70;;;;;;5053425;28;20386;-80
2021/03/15 09:59:38;;;;;;;3.17;0.70;;;4.50;82.50;;;;;;5056046;28;20045;-77
2021/03/15 10:02:04;;;;;;;5.38;0.80;;;4.50;81.90;;;;;;5056321;28;20025;-78
2021/03/15 10:04:34;;;;;;;2.60;0.60;;;4.50;82.10;;;;;;5055078;28;20037;-77
2021/03/15 10:07:02;;;;;;;1.15;0.70;;;4.40;82.50;;;;;;5055465;28;20067;-74
2021/03/15 10:09:29;;;;;;;3.83;1.13;;;4.40;82.90;;;;;;5055860;28;20028;-75
2021/03/15 10:11:56;;;;;;;3.15;1.35;;;4.40;83.10;;;;;;5038019;28;20029;-77
2021/03/15 10:14:24;;;;;;;2.45;0.93;;;4.40;83.00;;;;;;5055814;28;20021;-78
2021/03/15 10:17:07;;;;;;;1.50;0.82;;;4.30;83.90;;;;;;5055865;28;20032;-78
2021/03/15 10:19:33;;;;;;;2.55;0.80;;;4.30;85.70;;;;;;5055601;28;20454;-75
2021/03/15 10:22:14;;;;;;;1.38;0.82;;;4.30;84.90;;;;;;5055828;28;20032;-74
2021/03/15 10:24:41;;;;;;;1.90;0.70;;;4.50;85.50;;;;;;5055407;28;20048;-73
2021/03/15 10:27:08;;;;;;;0.68;0.47;;;4.40;85.20;;;;;;5055884;28;20029;-73
2021/03/15 10:29:34;;;;;;;0.60;0.50;;;4.40;84.90;;;;;;5055608;28;20053;-74
2021/03/15 10:32:02;;;;;;;0.43;0.30;;;4.50;84.80;;;;;;5055488;28;20036;-74
2021/03/15 10:34:28;;;;;;;1.33;0.40;;;4.50;84.50;;;;;;5055232;28;20142;-74
2021/03/15 10:36:55;;;;;;;1.98;0.47;;;4.60;84.90;;;;;;5055626;28;20104;-74
2021/03/15 10:39:22;;;;;;;1.60;0.80;;;4.80;84.20;;;;;;5055283;28;20033;-74
2021/03/15 10:41:50;;;;;;;0.52;0.50;;;4.90;84.80;;;;;;5055554;28;20385;-75
2021/03/15 10:44:21;;;;;;;1.95;0.50;;;5.30;82.90;;;;;;5037491;28;20025;-75
2021/03/15 10:46:53;;;;;;;0.82;0.57;;;5.40;81.60;;;;;;5037303;28;20021;-77
2021/03/15 10:49:26;;;;;;;2.90;1.52;;;5.60;79.90;;;;;;5055299;28;20067;-73
2021/03/15 10:51:53;;;;;;;1.15;0.70;;;5.50;79.40;;;;;;5055075;28;20405;-73
2021/03/15 10:54:39;;;;;;;1.23;0.45;;;5.60;79.60;;;;;;5055251;28;20028;-73
2021/03/15 10:57:18;;;;;;;0.90;0.50;;;5.50;80.00;;;;;;5054966;28;20112;-74
2021/03/15 10:59:46;;;;;;;0.70;0.60;;;5.50;80.80;;;;;;5055144;28;20120;-73
2021/03/15 11:02:25;;;;;;;0.50;0.30;;;5.50;80.90;;;;;;5037082;28;20070;-73
2021/03/15 11:04:55;;;;;;;2.05;0.60;;;5.40;80.30;;;;;;5054843;28;20017;-74
2021/03/15 11:07:30;;;;;;;0.57;0.50;;;5.30;80.60;;;;;;5054283;28;20013;-74
2021/03/15 11:10:14;;;;;;;0.93;0.60;;;5.10;81.30;;;;;;5054272;28;20024;-74
2021/03/15 11:12:42;;;;;;;1.95;0.55;;;5.10;81.80;;;;;;5036204;28;20025;-75
2021/03/15 11:15:18;;;;;;;2.25;0.50;;;5.00;82.50;;;;;;5054360;28;20029;-76
2021/03/15 11:18:04;;;;;;;0.32;0.30;;;5.00;83.10;;;;;;5054207;28;20025;-75
2021/03/15 11:20:39;;;;;;;1.90;0.57;;;5.00;84.10;;;;;;5054432;28;20040;-75
2021/03/15 11:23:05;;;;;;;1.37;0.67;;;4.90;85.20;;;;;;5036646;28;20032;-76
2021/03/15 11:25:31;;;;;;;0.60;0.50;;;4.90;85.30;;;;;;5054312;28;20029;-75
2021/03/15 11:28:06;;;;;;;1.40;0.30;;;4.90;84.10;;;;;;5054344;28;20033;-74
2021/03/15 11:30:32;;;;;;;1.25;0.50;;;5.00;83.40;;;;;;5054187;28;20021;-74
2021/03/15 11:33:05;;;;;;;1.00;0.70;;;5.00;84.00;;;;;;5036418;28;20071;-76
2021/03/15 11:35:31;;;;;;;2.70;0.80;;;4.90;85.80;;;;;;5054142;28;20076;-75
2021/03/15 11:37:58;;;;;;;0.55;0.50;;;4.90;86.50;;;;;;5054186;28;20045;-76
2021/03/15 11:40:41;;;;;;;0.65;0.65;;;5.10;85.10;;;;;;5054362;28;20020;-76
2021/03/15 11:43:09;;;;;;;0.98;0.52;;;5.40;84.70;;;;;;5054088;28;20064;-76
2021/03/15 11:45:35;;;;;;;1.38;0.65;;;5.60;85.00;;;;;;5054280;28;20021;-76
2021/03/15 11:48:02;;;;;;;2.72;0.65;;;5.80;84.50;;;;;;5054369;28;20033;-74
2021/03/15 11:50:29;;;;;;;0.88;0.70;;;5.70;83.40;;;;;;5054275;28;20118;-74
2021/03/15 11:52:56;;;;;;;1.55;0.70;;;5.70;82.70;;;;;;5054133;28;20025;-74
2021/03/15 11:55:22;;;;;;;0.45;0.45;;;5.60;82.20;;;;;;5053928;28;20100;-76
2021/03/15 11:57:48;;;;;;;1.02;0.75;;;5.50;82.90;;;;;;5053953;28;20108;-74
2021/03/15 12:00:18;;;;;;;1.17;0.75;;;5.30;84.00;;;;;;5053595;28;20028;-76
2021/03/15 12:02:44;;;;;;;0.55;0.55;;;5.30;85.10;;;;;;5053666;28;20017;-75
2021/03/15 12:05:10;;;;;;;0.90;0.68;;;5.30;84.70;;;;;;5036011;28;20436;-74
2021/03/15 12:07:40;;;;;;;0.80;0.50;;;5.40;83.70;;;;;;5036015;28;20032;-74
2021/03/15 12:10:11;;;;;;;0.55;0.55;;;5.50;84.00;;;;;;5053559;28;20398;-75
2021/03/15 12:12:37;;;;;;;0.52;0.45;;;5.50;83.10;;;;;;5035734;28;20060;-73
2021/03/15 12:15:06;;;;;;;0.98;0.77;;;5.50;81.50;;;;;;5053481;28;20061;-73
2021/03/15 12:17:32;;;;;;;0.75;0.70;;;5.40;81.60;;;;;;5035805;28;20035;-73
2021/03/15 12:19:59;;;;;;;2.10;0.95;;;5.40;82.10;;;;;;5053396;28;20065;-74
2021/03/15 12:22:25;;;;;;;1.52;0.80;;;5.30;83.10;;;;;;5053787;28;20043;-77
2021/03/15 12:24:50;;;;;;;0.52;0.47;;;5.10;82.60;;;;;;5053095;28;20024;-75
2021/03/15 12:27:16;;;;;;;1.30;0.80;;;4.70;83.50;;;;;;5053404;28;20030;-76
2021/03/15 12:29:42;;;;;;;1.58;0.90;;;4.70;84.80;;;;;;5053595;28;20083;-76
2021/03/15 12:32:07;;;;;;;1.00;0.70;;;4.30;85.80;;;;;;5053535;28;20029;-74
2021/03/15 12:34:34;;;;;;;2.15;1.40;;;4.20;87.40;;;;;;5053122;28;20044;-73
2021/03/15 12:37:01;;;;;;;0.85;0.60;;;4.10;88.20;;;;;;5053371;28;20119;-76
2021/03/15 12:39:27;;;;;;;1.15;0.77;;;4.00;88.30;;;;;;5035406;28;20461;-75
2021/03/15 12:41:53;;;;;;;1.00;0.88;;;4.10;88.50;;;;;;5053272;28;20386;-77
2021/03/15 12:44:18;;;;;;;1.48;1.02;;;4.10;88.10;;;;;;5053178;28;20029;-75
2021/03/15 12:46:44;;;;;;;1.88;1.10;;;4.00;87.70;;;;;;5048648;28;20028;-75
2021/03/15 12:49:10;;;;;;;1.52;0.70;;;3.80;88.90;;;;;;5051865;28;20535;-74
2021/03/15 12:51:36;;;;;;;0.90;0.60;;;3.90;89.00;;;;;;5052617;28;20037;-79
2021/03/15 12:54:05;;;;;;;1.67;0.88;;;3.90;88.60;;;;;;5053014;28;20016;-76
2021/03/15 12:56:30;;;;;;;1.55;0.88;;;3.90;88.40;;;;;;5053016;28;20151;-76
2021/03/15 12:58:56;;;;;;;5.03;1.30;;;3.90;88.10;;;;;;5053743;28;20120;-77
2021/03/15 13:01:22;;;;;;;1.70;0.93;;;3.80;88.40;;;;;;5053680;28;20390;-79
2021/03/15 13:03:47;;;;;;;0.80;0.80;;;3.70;88.80;;;;;;5053615;28;20029;-79
2021/03/15 13:06:16;;;;;;;3.38;0.95;;;3.80;88.60;;;;;;5054112;28;20466;-78
2021/03/15 13:08:42;;;;;;;1.25;1.10;;;3.60;88.90;;;;;;5035284;28;20064;-78
2021/03/15 13:11:08;;;;;;;1.70;1.45;;;3.60;88.90;;;;;;5054404;28;20032;-77
2021/03/15 13:13:34;;;;;;;4.07;1.30;;;3.60;89.60;;;;;;5039916;28;20025;-76